sensor_id;sensor_type;location;lat;lon;timestamp;P1;durP1;ratioP1;P2;durP2;ratioP2
57323;SDS011;43160;51.008;18.248;2023-01-09T00:06:32;36.10;;;13.20;;
57323;SDS011;43160;51.008;18.248;2023-01-09T00:16:15;40.30;;;13.80;;
57323;SDS011;43160;51.008;18.248;2023-01-09T00:26:20;46.60;;;13.80;;
57323;SDS011;43160;51.008;18.248;2023-01-09T00:36:06;38.40;;;13.70;;
57323;SDS011;43160;51.008;18.248;2023-01-09T00:45:50;31.50;;;13.50;;
57323;SDS011;43160;51.008;18.248;2023-01-09T00:55:42;31.30;;;12.80;;
57323;SDS011;43160;51.008;18.248;2023-01-09T01:05:26;35.10;;;13.10;;
57323;SDS011;43160;51.008;18.248;2023-01-09T01:15:32;33.40;;;9.70;;
57323;SDS011;43160;51.008;18.248;2023-01-09T01:25:16;35.90;;;12.10;;
57323;SDS011;43160;51.008;18.248;2023-01-09T01:35:00;29.70;;;11.70;;
57323;SDS011;43160;51.008;18.248;2023-01-09T01:54:40;33.50;;;14.20;;
57323;SDS011;43160;51.008;18.248;2023-01-09T02:04:43;28.90;;;10.80;;
57323;SDS011;43160;51.008;18.248;2023-01-09T02:14:38;32.50;;;10.30;;
57323;SDS011;43160;51.008;18.248;2023-01-09T02:52:47;35.40;;;12.80;;
57323;SDS011;43160;51.008;18.248;2023-01-09T03:03:23;33.50;;;10.40;;
57323;SDS011;43160;51.008;18.248;2023-01-09T03:13:52;28.30;;;9.10;;
57323;SDS011;43160;51.008;18.248;2023-01-09T03:23:56;33.40;;;11.40;;
57323;SDS011;43160;51.008;18.248;2023-01-09T03:33:41;31.70;;;10.10;;
57323;SDS011;43160;51.008;18.248;2023-01-09T03:43:25;27.70;;;10.50;;
57323;SDS011;43160;51.008;18.248;2023-01-09T03:53:10;30.90;;;10.50;;
57323;SDS011;43160;51.008;18.248;2023-01-09T04:02:55;37.90;;;12.00;;
57323;SDS011;43160;51.008;18.248;2023-01-09T04:12:38;26.10;;;9.90;;
57323;SDS011;43160;51.008;18.248;2023-01-09T04:22:23;30.10;;;10.70;;
57323;SDS011;43160;51.008;18.248;2023-01-09T04:32:07;36.80;;;13.10;;
57323;SDS011;43160;51.008;18.248;2023-01-09T04:41:49;42.40;;;12.20;;
57323;SDS011;43160;51.008;18.248;2023-01-09T04:51:33;42.10;;;14.90;;
57323;SDS011;43160;51.008;18.248;2023-01-09T05:01:16;33.10;;;14.30;;
57323;SDS011;43160;51.008;18.248;2023-01-09T05:18:17;48.50;;;15.70;;
57323;SDS011;43160;51.008;18.248;2023-01-09T05:28:00;30.80;;;12.50;;
57323;SDS011;43160;51.008;18.248;2023-01-09T05:37:45;31.80;;;10.90;;
57323;SDS011;43160;51.008;18.248;2023-01-09T05:47:29;35.70;;;15.00;;
57323;SDS011;43160;51.008;18.248;2023-01-09T05:57:13;33.70;;;14.00;;
57323;SDS011;43160;51.008;18.248;2023-01-09T06:06:56;33.40;;;14.40;;
57323;SDS011;43160;51.008;18.248;2023-01-09T06:16:39;56.20;;;24.80;;
57323;SDS011;43160;51.008;18.248;2023-01-09T06:26:26;49.00;;;18.20;;
57323;SDS011;43160;51.008;18.248;2023-01-09T06:36:13;45.40;;;16.60;;
57323;SDS011;43160;51.008;18.248;2023-01-09T06:45:56;52.10;;;20.70;;
57323;SDS011;43160;51.008;18.248;2023-01-09T06:55:41;26.50;;;9.20;;
57323;SDS011;43160;51.008;18.248;2023-01-09T07:05:24;48.00;;;19.90;;
57323;SDS011;43160;51.008;18.248;2023-01-09T07:15:07;43.40;;;17.70;;
57323;SDS011;43160;51.008;18.248;2023-01-09T07:24:51;43.00;;;18.40;;
57323;SDS011;43160;51.008;18.248;2023-01-09T07:34:34;40.40;;;16.80;;
57323;SDS011;43160;51.008;18.248;2023-01-09T07:44:17;55.80;;;22.30;;
57323;SDS011;43160;51.008;18.248;2023-01-09T07:54:00;52.70;;;23.10;;
57323;SDS011;43160;51.008;18.248;2023-01-09T08:03:44;53.80;;;19.60;;
57323;SDS011;43160;51.008;18.248;2023-01-09T08:13:27;23.40;;;11.90;;
57323;SDS011;43160;51.008;18.248;2023-01-09T08:23:12;37.20;;;17.80;;
57323;SDS011;43160;51.008;18.248;2023-01-09T08:32:55;32.30;;;14.70;;
57323;SDS011;43160;51.008;18.248;2023-01-09T08:42:39;36.80;;;14.40;;
57323;SDS011;43160;51.008;18.248;2023-01-09T08:53:00;32.60;;;14.70;;
57323;SDS011;43160;51.008;18.248;2023-01-09T09:02:44;33.20;;;15.40;;
57323;SDS011;43160;51.008;18.248;2023-01-09T09:12:28;26.60;;;12.20;;
57323;SDS011;43160;51.008;18.248;2023-01-09T09:22:36;30.20;;;11.10;;
57323;SDS011;43160;51.008;18.248;2023-01-09T09:32:21;28.10;;;9.40;;
57323;SDS011;43160;51.008;18.248;2023-01-09T09:42:17;22.40;;;10.90;;
57323;SDS011;43160;51.008;18.248;2023-01-09T10:03:25;16.00;;;6.30;;
57323;SDS011;43160;51.008;18.248;2023-01-09T10:13:35;17.20;;;6.50;;
57323;SDS011;43160;51.008;18.248;2023-01-09T10:35:10;21.60;;;5.90;;
57323;SDS011;43160;51.008;18.248;2023-01-09T10:55:17;12.70;;;5.00;;
57323;SDS011;43160;51.008;18.248;2023-01-09T11:05:17;12.60;;;4.70;;
57323;SDS011;43160;51.008;18.248;2023-01-09T11:26:52;9.90;;;3.90;;
57323;SDS011;43160;51.008;18.248;2023-01-09T11:37:10;13.90;;;3.30;;
57323;SDS011;43160;51.008;18.248;2023-01-09T11:46:58;10.00;;;2.60;;
57323;SDS011;43160;51.008;18.248;2023-01-09T11:57:07;7.20;;;2.70;;
57323;SDS011;43160;51.008;18.248;2023-01-09T12:07:14;9.80;;;3.30;;
57323;SDS011;43160;51.008;18.248;2023-01-09T12:37:57;7.60;;;2.20;;
57323;SDS011;43160;51.008;18.248;2023-01-09T12:58:27;13.20;;;3.20;;
57323;SDS011;43160;51.008;18.248;2023-01-09T13:08:49;12.60;;;4.30;;
57323;SDS011;43160;51.008;18.248;2023-01-09T13:29:32;18.10;;;8.30;;
57323;SDS011;43160;51.008;18.248;2023-01-09T13:39:23;15.00;;;5.50;;
57323;SDS011;43160;51.008;18.248;2023-01-09T13:59:43;15.50;;;7.00;;
57323;SDS011;43160;51.008;18.248;2023-01-09T14:09:54;13.20;;;5.10;;
57323;SDS011;43160;51.008;18.248;2023-01-09T14:19:41;12.50;;;6.10;;
57323;SDS011;43160;51.008;18.248;2023-01-09T14:30:15;16.70;;;5.70;;
57323;SDS011;43160;51.008;18.248;2023-01-09T14:40:13;12.90;;;5.30;;
57323;SDS011;43160;51.008;18.248;2023-01-09T15:00:34;17.60;;;5.20;;
57323;SDS011;43160;51.008;18.248;2023-01-09T15:10:25;20.70;;;11.50;;
57323;SDS011;43160;51.008;18.248;2023-01-09T15:20:22;32.40;;;13.40;;
57323;SDS011;43160;51.008;18.248;2023-01-09T15:30:25;40.80;;;12.10;;
57323;SDS011;43160;51.008;18.248;2023-01-09T15:58:25;27.40;;;9.70;;
57323;SDS011;43160;51.008;18.248;2023-01-09T16:08:22;21.20;;;8.90;;
57323;SDS011;43160;51.008;18.248;2023-01-09T16:38:12;16.80;;;6.00;;
57323;SDS011;43160;51.008;18.248;2023-01-09T16:48:19;10.50;;;3.80;;
57323;SDS011;43160;51.008;18.248;2023-01-09T16:58:04;26.80;;;11.10;;
57323;SDS011;43160;51.008;18.248;2023-01-09T17:07:48;19.10;;;7.70;;
57323;SDS011;43160;51.008;18.248;2023-01-09T17:17:35;20.60;;;9.70;;
57323;SDS011;43160;51.008;18.248;2023-01-09T17:27:39;30.00;;;10.30;;
57323;SDS011;43160;51.008;18.248;2023-01-09T17:37:41;24.90;;;11.30;;
57323;SDS011;43160;51.008;18.248;2023-01-09T17:47:35;34.40;;;14.20;;
57323;SDS011;43160;51.008;18.248;2023-01-09T17:57:19;24.00;;;8.20;;
57323;SDS011;43160;51.008;18.248;2023-01-09T18:07:12;26.60;;;11.40;;
57323;SDS011;43160;51.008;18.248;2023-01-09T18:16:56;54.80;;;18.10;;
57323;SDS011;43160;51.008;18.248;2023-01-09T18:26:39;65.20;;;18.50;;
57323;SDS011;43160;51.008;18.248;2023-01-09T18:36:23;31.80;;;12.10;;
57323;SDS011;43160;51.008;18.248;2023-01-09T18:46:14;20.40;;;7.70;;
57323;SDS011;43160;51.008;18.248;2023-01-09T18:56:06;33.80;;;13.90;;
57323;SDS011;43160;51.008;18.248;2023-01-09T19:05:52;26.80;;;12.20;;
57323;SDS011;43160;51.008;18.248;2023-01-09T19:15:40;27.40;;;11.50;;
57323;SDS011;43160;51.008;18.248;2023-01-09T19:25:23;26.30;;;10.90;;
57323;SDS011;43160;51.008;18.248;2023-01-09T19:35:09;91.90;;;28.60;;
57323;SDS011;43160;51.008;18.248;2023-01-09T19:44:53;69.30;;;23.20;;
57323;SDS011;43160;51.008;18.248;2023-01-09T19:54:39;36.50;;;12.00;;
57323;SDS011;43160;51.008;18.248;2023-01-09T20:04:23;42.60;;;17.50;;
57323;SDS011;43160;51.008;18.248;2023-01-09T20:14:14;36.60;;;16.40;;
57323;SDS011;43160;51.008;18.248;2023-01-09T20:24:00;41.70;;;13.50;;
57323;SDS011;43160;51.008;18.248;2023-01-09T20:33:49;28.80;;;12.50;;
57323;SDS011;43160;51.008;18.248;2023-01-09T20:43:36;39.30;;;11.20;;
57323;SDS011;43160;51.008;18.248;2023-01-09T20:53:20;37.40;;;15.40;;
57323;SDS011;43160;51.008;18.248;2023-01-09T21:03:03;29.40;;;10.90;;
57323;SDS011;43160;51.008;18.248;2023-01-09T21:12:47;29.70;;;13.20;;
57323;SDS011;43160;51.008;18.248;2023-01-09T21:22:35;40.40;;;15.10;;
57323;SDS011;43160;51.008;18.248;2023-01-09T21:32:25;32.80;;;13.00;;
57323;SDS011;43160;51.008;18.248;2023-01-09T21:42:09;36.40;;;13.10;;
57323;SDS011;43160;51.008;18.248;2023-01-09T21:52:30;41.60;;;17.80;;
57323;SDS011;43160;51.008;18.248;2023-01-09T22:02:16;29.40;;;11.60;;
57323;SDS011;43160;51.008;18.248;2023-01-09T22:12:04;79.70;;;21.90;;
57323;SDS011;43160;51.008;18.248;2023-01-09T22:21:48;35.20;;;14.10;;
57323;SDS011;43160;51.008;18.248;2023-01-09T22:31:32;47.00;;;20.80;;
57323;SDS011;43160;51.008;18.248;2023-01-09T22:41:20;57.90;;;21.20;;
57323;SDS011;43160;51.008;18.248;2023-01-09T22:51:09;39.00;;;16.10;;
57323;SDS011;43160;51.008;18.248;2023-01-09T23:00:58;52.30;;;19.80;;
57323;SDS011;43160;51.008;18.248;2023-01-09T23:10:53;38.30;;;14.40;;
57323;SDS011;43160;51.008;18.248;2023-01-09T23:20:36;25.10;;;8.90;;
57323;SDS011;43160;51.008;18.248;2023-01-09T23:30:19;28.70;;;11.70;;
57323;SDS011;43160;51.008;18.248;2023-01-09T23:40:08;22.50;;;8.80;;
57323;SDS011;43160;51.008;18.248;2023-01-09T23:50:13;31.20;;;12.30;;
57323;SDS011;43160;51.008;18.248;2023-01-09T23:52:39;60.80;;;28.90;;
